sensor_id;sensor_type;location;lat;lon;timestamp;P1;durP1;ratioP1;P2;durP2;ratioP2
7933;SDS011;4012;48.896;9.192;2024-01-11T00:02:17;45.97;;;31.50;;
7933;SDS011;4012;48.896;9.192;2024-01-11T00:04:43;43.20;;;29.60;;
7933;SDS011;4012;48.896;9.192;2024-01-11T00:07:09;43.77;;;29.43;;
7933;SDS011;4012;48.896;9.192;2024-01-11T00:09:38;39.87;;;28.93;;
7933;SDS011;4012;48.896;9.192;2024-01-11T00:12:07;44.33;;;30.30;;
7933;SDS011;4012;48.896;9.192;2024-01-11T00:14:33;44.60;;;30.13;;
7933;SDS011;4012;48.896;9.192;2024-01-11T00:17:00;41.70;;;30.13;;
7933;SDS011;4012;48.896;9.192;2024-01-11T00:19:25;41.73;;;29.87;;
7933;SDS011;4012;48.896;9.192;2024-01-11T00:21:51;45.57;;;28.67;;
7933;SDS011;4012;48.896;9.192;2024-01-11T00:24:17;42.73;;;29.00;;
7933;SDS011;4012;48.896;9.192;2024-01-11T00:26:42;42.50;;;28.80;;
7933;SDS011;4012;48.896;9.192;2024-01-11T00:29:08;43.97;;;29.70;;
7933;SDS011;4012;48.896;9.192;2024-01-11T00:31:33;39.63;;;27.83;;
7933;SDS011;4012;48.896;9.192;2024-01-11T00:34:00;42.80;;;29.10;;
7933;SDS011;4012;48.896;9.192;2024-01-11T00:36:26;44.03;;;27.77;;
7933;SDS011;4012;48.896;9.192;2024-01-11T00:38:53;41.07;;;27.67;;
7933;SDS011;4012;48.896;9.192;2024-01-11T00:41:18;41.03;;;28.63;;
7933;SDS011;4012;48.896;9.192;2024-01-11T00:43:44;40.60;;;28.03;;
7933;SDS011;4012;48.896;9.192;2024-01-11T00:46:10;44.57;;;28.83;;
7933;SDS011;4012;48.896;9.192;2024-01-11T00:48:35;46.40;;;29.53;;
7933;SDS011;4012;48.896;9.192;2024-01-11T00:51:01;42.07;;;27.93;;
7933;SDS011;4012;48.896;9.192;2024-01-11T00:53:26;39.27;;;28.57;;
7933;SDS011;4012;48.896;9.192;2024-01-11T00:55:56;39.37;;;28.43;;
7933;SDS011;4012;48.896;9.192;2024-01-11T00:58:25;39.97;;;28.43;;
7933;SDS011;4012;48.896;9.192;2024-01-11T01:00:50;62.20;;;29.87;;
7933;SDS011;4012;48.896;9.192;2024-01-11T01:03:21;40.37;;;29.23;;
7933;SDS011;4012;48.896;9.192;2024-01-11T01:05:47;41.10;;;28.30;;
7933;SDS011;4012;48.896;9.192;2024-01-11T01:08:12;39.30;;;28.33;;
7933;SDS011;4012;48.896;9.192;2024-01-11T01:10:38;38.07;;;29.13;;
7933;SDS011;4012;48.896;9.192;2024-01-11T01:13:04;39.23;;;27.80;;
7933;SDS011;4012;48.896;9.192;2024-01-11T01:15:29;40.33;;;28.13;;
7933;SDS011;4012;48.896;9.192;2024-01-11T01:17:55;38.60;;;27.30;;
7933;SDS011;4012;48.896;9.192;2024-01-11T01:20:21;41.23;;;29.43;;
7933;SDS011;4012;48.896;9.192;2024-01-11T01:22:47;38.47;;;28.47;;
7933;SDS011;4012;48.896;9.192;2024-01-11T01:25:13;39.33;;;26.77;;
7933;SDS011;4012;48.896;9.192;2024-01-11T01:27:38;39.77;;;28.93;;
7933;SDS011;4012;48.896;9.192;2024-01-11T01:30:04;41.57;;;28.37;;
7933;SDS011;4012;48.896;9.192;2024-01-11T01:32:30;39.37;;;28.77;;
7933;SDS011;4012;48.896;9.192;2024-01-11T01:34:56;39.90;;;28.57;;
7933;SDS011;4012;48.896;9.192;2024-01-11T01:37:21;42.43;;;28.77;;
7933;SDS011;4012;48.896;9.192;2024-01-11T01:39:47;45.83;;;28.53;;
7933;SDS011;4012;48.896;9.192;2024-01-11T01:42:12;40.73;;;28.30;;
7933;SDS011;4012;48.896;9.192;2024-01-11T01:44:38;40.53;;;28.50;;
7933;SDS011;4012;48.896;9.192;2024-01-11T01:47:06;39.80;;;29.80;;
7933;SDS011;4012;48.896;9.192;2024-01-11T01:49:33;45.93;;;29.30;;
7933;SDS011;4012;48.896;9.192;2024-01-11T01:52:00;44.10;;;30.57;;
7933;SDS011;4012;48.896;9.192;2024-01-11T01:54:26;37.73;;;28.47;;
7933;SDS011;4012;48.896;9.192;2024-01-11T01:56:52;40.07;;;29.67;;
7933;SDS011;4012;48.896;9.192;2024-01-11T01:59:19;43.83;;;31.60;;
7933;SDS011;4012;48.896;9.192;2024-01-11T02:01:46;41.70;;;29.30;;
7933;SDS011;4012;48.896;9.192;2024-01-11T02:04:11;43.23;;;29.17;;
7933;SDS011;4012;48.896;9.192;2024-01-11T02:06:37;39.37;;;29.03;;
7933;SDS011;4012;48.896;9.192;2024-01-11T02:09:03;41.77;;;28.67;;
7933;SDS011;4012;48.896;9.192;2024-01-11T02:11:29;45.20;;;30.67;;
7933;SDS011;4012;48.896;9.192;2024-01-11T02:13:55;42.80;;;29.57;;
7933;SDS011;4012;48.896;9.192;2024-01-11T02:16:22;42.30;;;28.33;;
7933;SDS011;4012;48.896;9.192;2024-01-11T02:18:48;41.37;;;31.03;;
7933;SDS011;4012;48.896;9.192;2024-01-11T02:21:14;42.90;;;29.07;;
7933;SDS011;4012;48.896;9.192;2024-01-11T02:23:57;40.66;;;28.68;;
7933;SDS011;4012;48.896;9.192;2024-01-11T02:26:29;44.43;;;29.53;;
7933;SDS011;4012;48.896;9.192;2024-01-11T02:28:55;43.47;;;29.43;;
7933;SDS011;4012;48.896;9.192;2024-01-11T02:31:21;41.23;;;27.80;;
7933;SDS011;4012;48.896;9.192;2024-01-11T02:33:47;41.70;;;27.90;;
7933;SDS011;4012;48.896;9.192;2024-01-11T02:36:13;39.20;;;28.07;;
7933;SDS011;4012;48.896;9.192;2024-01-11T02:38:38;40.53;;;29.47;;
7933;SDS011;4012;48.896;9.192;2024-01-11T02:41:06;41.73;;;30.30;;
7933;SDS011;4012;48.896;9.192;2024-01-11T02:43:33;41.80;;;30.07;;
7933;SDS011;4012;48.896;9.192;2024-01-11T02:46:01;41.37;;;29.20;;
7933;SDS011;4012;48.896;9.192;2024-01-11T02:48:27;38.77;;;28.47;;
7933;SDS011;4012;48.896;9.192;2024-01-11T02:50:54;42.47;;;30.50;;
7933;SDS011;4012;48.896;9.192;2024-01-11T02:53:23;45.97;;;30.23;;
7933;SDS011;4012;48.896;9.192;2024-01-11T02:55:51;47.80;;;30.23;;
7933;SDS011;4012;48.896;9.192;2024-01-11T02:58:17;43.30;;;28.13;;
7933;SDS011;4012;48.896;9.192;2024-01-11T03:00:43;43.03;;;28.37;;
7933;SDS011;4012;48.896;9.192;2024-01-11T03:03:08;49.03;;;30.13;;
7933;SDS011;4012;48.896;9.192;2024-01-11T03:05:34;46.70;;;29.93;;
7933;SDS011;4012;48.896;9.192;2024-01-11T03:07:59;42.57;;;29.57;;
7933;SDS011;4012;48.896;9.192;2024-01-11T03:10:25;44.23;;;30.77;;
7933;SDS011;4012;48.896;9.192;2024-01-11T03:12:50;42.67;;;30.33;;
7933;SDS011;4012;48.896;9.192;2024-01-11T03:15:16;40.77;;;29.73;;
7933;SDS011;4012;48.896;9.192;2024-01-11T03:17:42;41.97;;;30.27;;
7933;SDS011;4012;48.896;9.192;2024-01-11T03:20:07;49.53;;;30.27;;
7933;SDS011;4012;48.896;9.192;2024-01-11T03:22:33;42.63;;;28.97;;
7933;SDS011;4012;48.896;9.192;2024-01-11T03:24:59;40.63;;;29.37;;
7933;SDS011;4012;48.896;9.192;2024-01-11T03:27:24;45.10;;;31.77;;
7933;SDS011;4012;48.896;9.192;2024-01-11T03:29:50;43.30;;;30.57;;
7933;SDS011;4012;48.896;9.192;2024-01-11T03:32:16;42.20;;;29.70;;
7933;SDS011;4012;48.896;9.192;2024-01-11T03:34:42;41.37;;;30.97;;
7933;SDS011;4012;48.896;9.192;2024-01-11T03:37:07;42.93;;;31.23;;
7933;SDS011;4012;48.896;9.192;2024-01-11T03:39:33;42.80;;;30.70;;
7933;SDS011;4012;48.896;9.192;2024-01-11T03:42:00;47.27;;;30.57;;
7933;SDS011;4012;48.896;9.192;2024-01-11T03:44:25;51.17;;;31.57;;
7933;SDS011;4012;48.896;9.192;2024-01-11T03:46:51;42.27;;;28.87;;
7933;SDS011;4012;48.896;9.192;2024-01-11T03:49:16;45.57;;;29.70;;
7933;SDS011;4012;48.896;9.192;2024-01-11T03:51:42;42.13;;;30.97;;
7933;SDS011;4012;48.896;9.192;2024-01-11T03:54:08;43.00;;;29.77;;
7933;SDS011;4012;48.896;9.192;2024-01-11T03:56:36;41.53;;;29.73;;
7933;SDS011;4012;48.896;9.192;2024-01-11T03:59:04;42.70;;;30.43;;
7933;SDS011;4012;48.896;9.192;2024-01-11T04:01:30;41.57;;;29.10;;
7933;SDS011;4012;48.896;9.192;2024-01-11T04:03:56;40.80;;;29.93;;
7933;SDS011;4012;48.896;9.192;2024-01-11T04:06:22;43.93;;;29.67;;
7933;SDS011;4012;48.896;9.192;2024-01-11T04:08:49;42.93;;;29.83;;
7933;SDS011;4012;48.896;9.192;2024-01-11T04:11:15;44.90;;;31.13;;
7933;SDS011;4012;48.896;9.192;2024-01-11T04:13:41;43.13;;;28.97;;
7933;SDS011;4012;48.896;9.192;2024-01-11T04:16:06;44.80;;;29.20;;
7933;SDS011;4012;48.896;9.192;2024-01-11T04:18:32;45.27;;;30.47;;
7933;SDS011;4012;48.896;9.192;2024-01-11T04:20:58;39.50;;;27.80;;
7933;SDS011;4012;48.896;9.192;2024-01-11T04:23:24;42.20;;;30.43;;
7933;SDS011;4012;48.896;9.192;2024-01-11T04:25:49;41.97;;;27.73;;
7933;SDS011;4012;48.896;9.192;2024-01-11T04:28:18;41.80;;;29.90;;
7933;SDS011;4012;48.896;9.192;2024-01-11T04:30:43;44.47;;;30.80;;
7933;SDS011;4012;48.896;9.192;2024-01-11T04:33:09;41.10;;;29.17;;
7933;SDS011;4012;48.896;9.192;2024-01-11T04:35:35;47.03;;;30.30;;
7933;SDS011;4012;48.896;9.192;2024-01-11T04:38:01;41.63;;;30.33;;
7933;SDS011;4012;48.896;9.192;2024-01-11T04:40:27;41.80;;;30.47;;
7933;SDS011;4012;48.896;9.192;2024-01-11T04:42:52;48.40;;;31.23;;
7933;SDS011;4012;48.896;9.192;2024-01-11T04:45:18;41.73;;;30.47;;
7933;SDS011;4012;48.896;9.192;2024-01-11T04:47:43;41.37;;;29.60;;
7933;SDS011;4012;48.896;9.192;2024-01-11T04:50:09;44.17;;;31.97;;
7933;SDS011;4012;48.896;9.192;2024-01-11T04:52:35;44.67;;;30.60;;
7933;SDS011;4012;48.896;9.192;2024-01-11T04:55:01;48.50;;;30.67;;
7933;SDS011;4012;48.896;9.192;2024-01-11T04:57:27;42.70;;;31.43;;
7933;SDS011;4012;48.896;9.192;2024-01-11T04:59:52;44.67;;;30.20;;
7933;SDS011;4012;48.896;9.192;2024-01-11T05:02:20;40.63;;;30.40;;
7933;SDS011;4012;48.896;9.192;2024-01-11T05:04:46;42.07;;;30.20;;
7933;SDS011;4012;48.896;9.192;2024-01-11T05:07:12;41.90;;;30.67;;
7933;SDS011;4012;48.896;9.192;2024-01-11T05:09:38;44.77;;;31.33;;
7933;SDS011;4012;48.896;9.192;2024-01-11T05:12:04;40.50;;;29.37;;
7933;SDS011;4012;48.896;9.192;2024-01-11T05:14:30;41.77;;;31.10;;
7933;SDS011;4012;48.896;9.192;2024-01-11T05:16:56;45.73;;;32.30;;
7933;SDS011;4012;48.896;9.192;2024-01-11T05:19:21;43.37;;;30.97;;
7933;SDS011;4012;48.896;9.192;2024-01-11T05:21:47;43.83;;;31.80;;
7933;SDS011;4012;48.896;9.192;2024-01-11T05:24:13;46.70;;;31.30;;
7933;SDS011;4012;48.896;9.192;2024-01-11T05:26:38;41.20;;;30.10;;
7933;SDS011;4012;48.896;9.192;2024-01-11T05:29:04;42.93;;;31.33;;
7933;SDS011;4012;48.896;9.192;2024-01-11T05:31:30;41.87;;;29.17;;
7933;SDS011;4012;48.896;9.192;2024-01-11T05:33:55;41.67;;;30.70;;
7933;SDS011;4012;48.896;9.192;2024-01-11T05:36:21;40.67;;;29.47;;
7933;SDS011;4012;48.896;9.192;2024-01-11T05:38:46;42.60;;;29.73;;
7933;SDS011;4012;48.896;9.192;2024-01-11T05:41:12;43.90;;;30.07;;
7933;SDS011;4012;48.896;9.192;2024-01-11T05:43:38;42.43;;;31.17;;
7933;SDS011;4012;48.896;9.192;2024-01-11T05:46:04;40.43;;;30.60;;
7933;SDS011;4012;48.896;9.192;2024-01-11T05:48:31;42.07;;;29.77;;
7933;SDS011;4012;48.896;9.192;2024-01-11T05:50:57;45.43;;;29.83;;
7933;SDS011;4012;48.896;9.192;2024-01-11T05:53:23;40.60;;;29.37;;
7933;SDS011;4012;48.896;9.192;2024-01-11T05:55:49;42.27;;;29.73;;
7933;SDS011;4012;48.896;9.192;2024-01-11T05:58:15;42.27;;;30.43;;
7933;SDS011;4012;48.896;9.192;2024-01-11T06:00:41;41.10;;;30.90;;
7933;SDS011;4012;48.896;9.192;2024-01-11T06:03:07;42.47;;;31.20;;
7933;SDS011;4012;48.896;9.192;2024-01-11T06:05:32;47.07;;;33.33;;
7933;SDS011;4012;48.896;9.192;2024-01-11T06:07:58;43.77;;;30.77;;
7933;SDS011;4012;48.896;9.192;2024-01-11T06:10:24;43.50;;;30.57;;
7933;SDS011;4012;48.896;9.192;2024-01-11T06:12:49;43.37;;;30.77;;
7933;SDS011;4012;48.896;9.192;2024-01-11T06:15:15;41.10;;;30.53;;
7933;SDS011;4012;48.896;9.192;2024-01-11T06:17:41;41.70;;;31.00;;
7933;SDS011;4012;48.896;9.192;2024-01-11T06:20:06;44.93;;;30.97;;
7933;SDS011;4012;48.896;9.192;2024-01-11T06:22:32;41.20;;;30.20;;
7933;SDS011;4012;48.896;9.192;2024-01-11T06:24:58;45.90;;;32.93;;
7933;SDS011;4012;48.896;9.192;2024-01-11T06:27:24;40.33;;;29.90;;
7933;SDS011;4012;48.896;9.192;2024-01-11T06:29:50;42.17;;;30.23;;
7933;SDS011;4012;48.896;9.192;2024-01-11T06:32:15;44.37;;;30.23;;
7933;SDS011;4012;48.896;9.192;2024-01-11T06:34:41;41.63;;;29.43;;
7933;SDS011;4012;48.896;9.192;2024-01-11T06:37:10;42.33;;;30.73;;
7933;SDS011;4012;48.896;9.192;2024-01-11T06:39:36;40.97;;;30.20;;
7933;SDS011;4012;48.896;9.192;2024-01-11T06:42:02;42.80;;;30.73;;
7933;SDS011;4012;48.896;9.192;2024-01-11T06:44:27;42.23;;;32.13;;
7933;SDS011;4012;48.896;9.192;2024-01-11T06:46:53;50.43;;;33.67;;
7933;SDS011;4012;48.896;9.192;2024-01-11T06:49:19;45.00;;;31.00;;
7933;SDS011;4012;48.896;9.192;2024-01-11T06:51:44;43.07;;;30.13;;
7933;SDS011;4012;48.896;9.192;2024-01-11T06:54:10;44.10;;;31.53;;
7933;SDS011;4012;48.896;9.192;2024-01-11T06:56:35;40.30;;;30.10;;
7933;SDS011;4012;48.896;9.192;2024-01-11T06:59:01;41.77;;;30.13;;
7933;SDS011;4012;48.896;9.192;2024-01-11T07:01:27;42.77;;;30.80;;
7933;SDS011;4012;48.896;9.192;2024-01-11T07:03:53;43.30;;;30.07;;
7933;SDS011;4012;48.896;9.192;2024-01-11T07:06:18;45.33;;;30.63;;
7933;SDS011;4012;48.896;9.192;2024-01-11T07:08:44;39.77;;;29.60;;
7933;SDS011;4012;48.896;9.192;2024-01-11T07:11:09;43.60;;;30.33;;
7933;SDS011;4012;48.896;9.192;2024-01-11T07:13:36;40.47;;;30.70;;
7933;SDS011;4012;48.896;9.192;2024-01-11T07:16:01;42.57;;;30.40;;
7933;SDS011;4012;48.896;9.192;2024-01-11T07:18:28;41.27;;;30.33;;
7933;SDS011;4012;48.896;9.192;2024-01-11T07:20:55;39.13;;;28.43;;
7933;SDS011;4012;48.896;9.192;2024-01-11T07:23:22;41.37;;;30.03;;
7933;SDS011;4012;48.896;9.192;2024-01-11T07:25:47;39.37;;;29.27;;
7933;SDS011;4012;48.896;9.192;2024-01-11T07:28:13;48.93;;;31.67;;
7933;SDS011;4012;48.896;9.192;2024-01-11T07:30:39;43.03;;;29.63;;
7933;SDS011;4012;48.896;9.192;2024-01-11T07:33:05;41.70;;;30.03;;
7933;SDS011;4012;48.896;9.192;2024-01-11T07:35:30;41.87;;;30.47;;
7933;SDS011;4012;48.896;9.192;2024-01-11T07:37:56;42.03;;;29.00;;
7933;SDS011;4012;48.896;9.192;2024-01-11T07:40:22;41.60;;;30.90;;
7933;SDS011;4012;48.896;9.192;2024-01-11T07:42:48;41.23;;;29.80;;
7933;SDS011;4012;48.896;9.192;2024-01-11T07:45:14;42.23;;;30.03;;
7933;SDS011;4012;48.896;9.192;2024-01-11T07:47:40;42.87;;;31.33;;
7933;SDS011;4012;48.896;9.192;2024-01-11T07:50:07;40.10;;;29.00;;
7933;SDS011;4012;48.896;9.192;2024-01-11T07:52:34;41.77;;;31.17;;
7933;SDS011;4012;48.896;9.192;2024-01-11T07:55:01;41.80;;;30.60;;
7933;SDS011;4012;48.896;9.192;2024-01-11T07:57:32;47.07;;;29.97;;
7933;SDS011;4012;48.896;9.192;2024-01-11T08:00:01;43.67;;;32.23;;
7933;SDS011;4012;48.896;9.192;2024-01-11T08:02:28;41.20;;;29.93;;
7933;SDS011;4012;48.896;9.192;2024-01-11T08:04:54;39.33;;;29.47;;
7933;SDS011;4012;48.896;9.192;2024-01-11T08:07:20;37.80;;;28.60;;
7933;SDS011;4012;48.896;9.192;2024-01-11T08:09:46;39.47;;;28.47;;
7933;SDS011;4012;48.896;9.192;2024-01-11T08:12:12;39.20;;;28.20;;
7933;SDS011;4012;48.896;9.192;2024-01-11T08:14:39;40.27;;;28.03;;
7933;SDS011;4012;48.896;9.192;2024-01-11T08:17:06;39.70;;;28.77;;
7933;SDS011;4012;48.896;9.192;2024-01-11T08:19:33;46.47;;;29.70;;
7933;SDS011;4012;48.896;9.192;2024-01-11T08:21:59;35.47;;;26.70;;
7933;SDS011;4012;48.896;9.192;2024-01-11T08:24:24;38.80;;;27.87;;
7933;SDS011;4012;48.896;9.192;2024-01-11T08:26:50;37.40;;;27.43;;
7933;SDS011;4012;48.896;9.192;2024-01-11T08:29:16;41.00;;;28.60;;
7933;SDS011;4012;48.896;9.192;2024-01-11T08:31:44;39.60;;;28.80;;
7933;SDS011;4012;48.896;9.192;2024-01-11T08:34:11;37.20;;;28.00;;
7933;SDS011;4012;48.896;9.192;2024-01-11T08:36:36;36.57;;;26.60;;
7933;SDS011;4012;48.896;9.192;2024-01-11T08:39:03;37.67;;;28.40;;
7933;SDS011;4012;48.896;9.192;2024-01-11T08:41:40;40.90;;;28.10;;
7933;SDS011;4012;48.896;9.192;2024-01-11T08:44:07;38.27;;;27.03;;
7933;SDS011;4012;48.896;9.192;2024-01-11T08:46:32;39.23;;;26.83;;
7933;SDS011;4012;48.896;9.192;2024-01-11T08:49:01;42.27;;;27.50;;
7933;SDS011;4012;48.896;9.192;2024-01-11T08:51:30;38.23;;;26.80;;
7933;SDS011;4012;48.896;9.192;2024-01-11T08:53:57;39.97;;;27.13;;
7933;SDS011;4012;48.896;9.192;2024-01-11T08:56:23;37.67;;;28.03;;
7933;SDS011;4012;48.896;9.192;2024-01-11T08:58:48;38.23;;;28.03;;
7933;SDS011;4012;48.896;9.192;2024-01-11T09:01:14;37.93;;;26.57;;
7933;SDS011;4012;48.896;9.192;2024-01-11T09:03:40;43.67;;;27.27;;
7933;SDS011;4012;48.896;9.192;2024-01-11T09:06:06;40.30;;;27.57;;
7933;SDS011;4012;48.896;9.192;2024-01-11T09:08:32;39.33;;;26.93;;
7933;SDS011;4012;48.896;9.192;2024-01-11T09:10:59;34.93;;;27.17;;
7933;SDS011;4012;48.896;9.192;2024-01-11T09:13:25;37.50;;;26.63;;
7933;SDS011;4012;48.896;9.192;2024-01-11T09:15:52;39.00;;;27.10;;
7933;SDS011;4012;48.896;9.192;2024-01-11T09:18:19;34.03;;;25.40;;
7933;SDS011;4012;48.896;9.192;2024-01-11T09:20:45;33.47;;;24.47;;
7933;SDS011;4012;48.896;9.192;2024-01-11T09:23:11;33.27;;;23.97;;
7933;SDS011;4012;48.896;9.192;2024-01-11T09:25:37;32.83;;;23.03;;
7933;SDS011;4012;48.896;9.192;2024-01-11T09:28:02;32.03;;;22.90;;
7933;SDS011;4012;48.896;9.192;2024-01-11T09:30:28;29.63;;;21.40;;
7933;SDS011;4012;48.896;9.192;2024-01-11T09:32:54;28.47;;;19.00;;
7933;SDS011;4012;48.896;9.192;2024-01-11T09:35:21;27.57;;;18.90;;
7933;SDS011;4012;48.896;9.192;2024-01-11T09:37:48;28.30;;;19.50;;
7933;SDS011;4012;48.896;9.192;2024-01-11T09:40:14;26.87;;;18.80;;
7933;SDS011;4012;48.896;9.192;2024-01-11T09:42:41;26.87;;;19.57;;
7933;SDS011;4012;48.896;9.192;2024-01-11T09:45:07;28.70;;;20.67;;
7933;SDS011;4012;48.896;9.192;2024-01-11T09:47:41;30.67;;;20.87;;
7933;SDS011;4012;48.896;9.192;2024-01-11T09:50:07;36.43;;;23.03;;
7933;SDS011;4012;48.896;9.192;2024-01-11T09:52:33;27.27;;;20.00;;
7933;SDS011;4012;48.896;9.192;2024-01-11T09:54:59;27.57;;;20.13;;
7933;SDS011;4012;48.896;9.192;2024-01-11T09:57:29;28.70;;;20.63;;
7933;SDS011;4012;48.896;9.192;2024-01-11T09:59:56;27.57;;;20.63;;
7933;SDS011;4012;48.896;9.192;2024-01-11T10:02:23;29.20;;;20.83;;
7933;SDS011;4012;48.896;9.192;2024-01-11T10:04:50;27.77;;;19.97;;
7933;SDS011;4012;48.896;9.192;2024-01-11T10:07:17;28.80;;;21.77;;
7933;SDS011;4012;48.896;9.192;2024-01-11T10:09:47;27.60;;;21.80;;
7933;SDS011;4012;48.896;9.192;2024-01-11T10:12:13;28.20;;;21.80;;
7933;SDS011;4012;48.896;9.192;2024-01-11T10:14:39;31.77;;;21.67;;
7933;SDS011;4012;48.896;9.192;2024-01-11T10:17:05;28.70;;;22.17;;
7933;SDS011;4012;48.896;9.192;2024-01-11T10:19:31;28.23;;;21.13;;
7933;SDS011;4012;48.896;9.192;2024-01-11T10:21:57;27.50;;;21.13;;
7933;SDS011;4012;48.896;9.192;2024-01-11T10:24:23;29.57;;;22.10;;
7933;SDS011;4012;48.896;9.192;2024-01-11T10:26:51;27.27;;;20.57;;
7933;SDS011;4012;48.896;9.192;2024-01-11T10:29:28;28.00;;;21.07;;
7933;SDS011;4012;48.896;9.192;2024-01-11T10:31:56;27.13;;;20.97;;
7933;SDS011;4012;48.896;9.192;2024-01-11T10:34:23;32.30;;;22.00;;
7933;SDS011;4012;48.896;9.192;2024-01-11T10:36:49;31.10;;;21.37;;
7933;SDS011;4012;48.896;9.192;2024-01-11T10:39:18;32.93;;;21.97;;
7933;SDS011;4012;48.896;9.192;2024-01-11T10:41:51;37.07;;;22.57;;
7933;SDS011;4012;48.896;9.192;2024-01-11T10:44:21;33.17;;;21.37;;
7933;SDS011;4012;48.896;9.192;2024-01-11T10:46:48;31.03;;;21.43;;
7933;SDS011;4012;48.896;9.192;2024-01-11T10:49:18;29.87;;;20.87;;
7933;SDS011;4012;48.896;9.192;2024-01-11T10:51:53;30.20;;;21.20;;
7933;SDS011;4012;48.896;9.192;2024-01-11T10:54:29;29.67;;;20.70;;
7933;SDS011;4012;48.896;9.192;2024-01-11T10:56:56;29.13;;;18.90;;
7933;SDS011;4012;48.896;9.192;2024-01-11T10:59:28;33.73;;;20.43;;
7933;SDS011;4012;48.896;9.192;2024-01-11T11:01:56;38.37;;;21.93;;
7933;SDS011;4012;48.896;9.192;2024-01-11T11:04:25;30.07;;;21.40;;
7933;SDS011;4012;48.896;9.192;2024-01-11T11:06:52;32.60;;;22.03;;
7933;SDS011;4012;48.896;9.192;2024-01-11T11:09:23;35.07;;;22.57;;
7933;SDS011;4012;48.896;9.192;2024-01-11T12:07:05;39.33;;;27.97;;
7933;SDS011;4012;48.896;9.192;2024-01-11T12:09:30;35.83;;;27.00;;
7933;SDS011;4012;48.896;9.192;2024-01-11T12:11:56;39.50;;;27.43;;
7933;SDS011;4012;48.896;9.192;2024-01-11T12:14:21;45.20;;;28.47;;
7933;SDS011;4012;48.896;9.192;2024-01-11T12:16:55;41.30;;;28.13;;
7933;SDS011;4012;48.896;9.192;2024-01-11T12:19:22;40.70;;;28.37;;
7933;SDS011;4012;48.896;9.192;2024-01-11T12:21:49;38.10;;;25.83;;
7933;SDS011;4012;48.896;9.192;2024-01-11T12:24:15;42.57;;;28.20;;
7933;SDS011;4012;48.896;9.192;2024-01-11T12:26:42;43.87;;;26.87;;
7933;SDS011;4012;48.896;9.192;2024-01-11T12:29:08;41.00;;;28.07;;
7933;SDS011;4012;48.896;9.192;2024-01-11T12:31:34;39.33;;;27.00;;
7933;SDS011;4012;48.896;9.192;2024-01-11T12:34:03;38.23;;;26.57;;
7933;SDS011;4012;48.896;9.192;2024-01-11T12:36:29;37.23;;;26.33;;
7933;SDS011;4012;48.896;9.192;2024-01-11T12:38:54;39.00;;;27.53;;
7933;SDS011;4012;48.896;9.192;2024-01-11T12:41:23;38.07;;;28.70;;
7933;SDS011;4012;48.896;9.192;2024-01-11T12:43:49;38.03;;;27.67;;
7933;SDS011;4012;48.896;9.192;2024-01-11T12:46:15;42.77;;;28.30;;
7933;SDS011;4012;48.896;9.192;2024-01-11T12:48:42;41.80;;;28.53;;
7933;SDS011;4012;48.896;9.192;2024-01-11T12:51:07;46.50;;;27.53;;
7933;SDS011;4012;48.896;9.192;2024-01-11T12:53:33;43.07;;;27.53;;
7933;SDS011;4012;48.896;9.192;2024-01-11T12:56:04;41.07;;;28.67;;
7933;SDS011;4012;48.896;9.192;2024-01-11T12:58:35;38.67;;;27.00;;
7933;SDS011;4012;48.896;9.192;2024-01-11T13:01:02;41.30;;;28.50;;
7933;SDS011;4012;48.896;9.192;2024-01-11T13:03:29;43.90;;;28.60;;
7933;SDS011;4012;48.896;9.192;2024-01-11T13:05:56;37.53;;;27.30;;
7933;SDS011;4012;48.896;9.192;2024-01-11T13:08:22;40.53;;;28.13;;
7933;SDS011;4012;48.896;9.192;2024-01-11T13:10:48;41.90;;;26.63;;
7933;SDS011;4012;48.896;9.192;2024-01-11T13:13:14;38.30;;;27.40;;
7933;SDS011;4012;48.896;9.192;2024-01-11T13:15:40;38.07;;;27.17;;
7933;SDS011;4012;48.896;9.192;2024-01-11T13:18:05;40.90;;;27.47;;
7933;SDS011;4012;48.896;9.192;2024-01-11T13:20:31;41.23;;;28.00;;
7933;SDS011;4012;48.896;9.192;2024-01-11T13:23:16;40.67;;;27.13;;
7933;SDS011;4012;48.896;9.192;2024-01-11T13:25:45;37.53;;;26.73;;
7933;SDS011;4012;48.896;9.192;2024-01-11T13:28:12;38.43;;;27.23;;
7933;SDS011;4012;48.896;9.192;2024-01-11T13:30:38;37.73;;;27.27;;
7933;SDS011;4012;48.896;9.192;2024-01-11T13:33:04;37.47;;;26.17;;
7933;SDS011;4012;48.896;9.192;2024-01-11T13:35:31;41.53;;;27.40;;
7933;SDS011;4012;48.896;9.192;2024-01-11T13:37:56;39.93;;;27.43;;
7933;SDS011;4012;48.896;9.192;2024-01-11T13:40:22;42.93;;;27.07;;
7933;SDS011;4012;48.896;9.192;2024-01-11T13:42:47;41.57;;;28.03;;
7933;SDS011;4012;48.896;9.192;2024-01-11T13:45:13;36.47;;;27.17;;
7933;SDS011;4012;48.896;9.192;2024-01-11T13:47:39;44.43;;;28.43;;
7933;SDS011;4012;48.896;9.192;2024-01-11T13:50:04;41.47;;;27.67;;
7933;SDS011;4012;48.896;9.192;2024-01-11T13:52:30;40.77;;;27.70;;
7933;SDS011;4012;48.896;9.192;2024-01-11T13:54:56;39.37;;;26.83;;
7933;SDS011;4012;48.896;9.192;2024-01-11T13:57:22;35.63;;;26.80;;
7933;SDS011;4012;48.896;9.192;2024-01-11T13:59:47;38.47;;;27.53;;
7933;SDS011;4012;48.896;9.192;2024-01-11T14:02:14;36.37;;;26.27;;
7933;SDS011;4012;48.896;9.192;2024-01-11T14:04:39;38.33;;;26.33;;
7933;SDS011;4012;48.896;9.192;2024-01-11T14:07:05;40.13;;;27.23;;
7933;SDS011;4012;48.896;9.192;2024-01-11T14:09:31;40.70;;;26.97;;
7933;SDS011;4012;48.896;9.192;2024-01-11T14:11:56;39.43;;;28.40;;
7933;SDS011;4012;48.896;9.192;2024-01-11T14:14:22;38.37;;;28.40;;
7933;SDS011;4012;48.896;9.192;2024-01-11T14:16:48;37.00;;;26.83;;
7933;SDS011;4012;48.896;9.192;2024-01-11T14:19:14;39.33;;;28.20;;
7933;SDS011;4012;48.896;9.192;2024-01-11T14:21:40;37.97;;;27.13;;
7933;SDS011;4012;48.896;9.192;2024-01-11T14:24:05;39.03;;;27.33;;
7933;SDS011;4012;48.896;9.192;2024-01-11T14:26:32;39.20;;;26.87;;
7933;SDS011;4012;48.896;9.192;2024-01-11T14:29:00;37.73;;;27.67;;
7933;SDS011;4012;48.896;9.192;2024-01-11T14:31:26;46.40;;;28.30;;
7933;SDS011;4012;48.896;9.192;2024-01-11T14:33:52;41.70;;;27.60;;
7933;SDS011;4012;48.896;9.192;2024-01-11T14:36:18;38.00;;;27.23;;
7933;SDS011;4012;48.896;9.192;2024-01-11T14:38:43;39.73;;;29.30;;
7933;SDS011;4012;48.896;9.192;2024-01-11T14:41:09;40.97;;;28.50;;
7933;SDS011;4012;48.896;9.192;2024-01-11T14:43:35;40.13;;;26.77;;
7933;SDS011;4012;48.896;9.192;2024-01-11T14:46:01;44.80;;;27.80;;
7933;SDS011;4012;48.896;9.192;2024-01-11T14:48:26;40.00;;;28.80;;
7933;SDS011;4012;48.896;9.192;2024-01-11T14:50:55;41.13;;;28.60;;
7933;SDS011;4012;48.896;9.192;2024-01-11T14:53:21;45.67;;;28.53;;
7933;SDS011;4012;48.896;9.192;2024-01-11T14:55:47;36.63;;;27.93;;
7933;SDS011;4012;48.896;9.192;2024-01-11T14:58:13;39.03;;;28.07;;
7933;SDS011;4012;48.896;9.192;2024-01-11T15:00:39;38.93;;;27.50;;
7933;SDS011;4012;48.896;9.192;2024-01-11T15:03:04;36.27;;;26.93;;
7933;SDS011;4012;48.896;9.192;2024-01-11T15:05:30;38.30;;;28.20;;
7933;SDS011;4012;48.896;9.192;2024-01-11T15:07:56;40.03;;;28.83;;
7933;SDS011;4012;48.896;9.192;2024-01-11T15:10:22;39.57;;;28.00;;
7933;SDS011;4012;48.896;9.192;2024-01-11T15:12:48;43.30;;;28.00;;
7933;SDS011;4012;48.896;9.192;2024-01-11T15:15:13;41.37;;;26.83;;
7933;SDS011;4012;48.896;9.192;2024-01-11T15:17:39;37.40;;;26.43;;
7933;SDS011;4012;48.896;9.192;2024-01-11T15:20:05;35.63;;;26.25;;
7933;SDS011;4012;48.896;9.192;2024-01-11T15:22:31;40.17;;;28.23;;
7933;SDS011;4012;48.896;9.192;2024-01-11T15:24:57;39.60;;;27.57;;
7933;SDS011;4012;48.896;9.192;2024-01-11T15:27:23;37.97;;;27.27;;
7933;SDS011;4012;48.896;9.192;2024-01-11T15:29:49;42.43;;;28.17;;
7933;SDS011;4012;48.896;9.192;2024-01-11T15:32:17;38.87;;;27.33;;
7933;SDS011;4012;48.896;9.192;2024-01-11T15:34:43;45.10;;;27.17;;
7933;SDS011;4012;48.896;9.192;2024-01-11T15:37:08;39.03;;;27.37;;
7933;SDS011;4012;48.896;9.192;2024-01-11T15:39:34;37.17;;;26.97;;